Time;durP1;ratioP1;P1;durP2;ratioP2;P2;SDS_P1;SDS_P2;PMS_P1;PMS_P2;Temp;Humidity;BMP_temperature;BMP_pressure;BME280_temperature;BME280_humidity;BME280_pressure;Samples;Min_cycle;Max_cycle;Signal;HPM_P1;HPM_P2
2021/03/19 00:01:40;;;;;;;11.32;4.90;;;5.60;88.10;;;;;;5074206;28;20477;-76
2021/03/19 00:04:09;;;;;;;10.02;5.47;;;5.60;88.20;;;;;;5092518;28;20449;-76
2021/03/19 00:06:35;;;;;;;9.75;5.65;;;5.60;88.40;;;;;;5092135;28;20072;-76
2021/03/19 00:09:04;;;;;;;10.38;5.60;;;5.60;89.10;;;;;;5092546;28;20030;-76
2021/03/19 00:11:30;;;;;;;7.22;4.75;;;5.60;88.60;;;;;;5092354;28;20103;-76
2021/03/19 00:13:55;;;;;;;10.05;5.63;;;5.60;88.70;;;;;;5092133;28;20128;-76
2021/03/19 00:16:21;;;;;;;10.15;5.90;;;5.60;88.60;;;;;;5057781;28;20131;-76
2021/03/19 00:18:47;;;;;;;14.65;6.15;;;5.60;88.50;;;;;;5092058;28;20032;-76
2021/03/19 00:21:13;;;;;;;10.60;5.82;;;5.60;88.50;;;;;;5074668;28;20020;-76
2021/03/19 00:23:39;;;;;;;11.48;6.07;;;5.50;89.00;;;;;;5092228;28;20120;-76
2021/03/19 00:26:04;;;;;;;13.00;5.75;;;5.60;88.60;;;;;;5074036;28;20103;-76
2021/03/19 00:28:30;;;;;;;15.30;6.82;;;5.60;88.50;;;;;;5091745;28;20090;-77
2021/03/19 00:30:56;;;;;;;10.23;6.65;;;5.60;88.40;;;;;;5092369;28;20103;-76
2021/03/19 00:33:21;;;;;;;7.97;5.55;;;5.50;88.30;;;;;;5074258;28;20028;-76
2021/03/19 00:35:47;;;;;;;11.20;6.85;;;5.50;88.30;;;;;;5092468;28;20066;-76
2021/03/19 00:38:13;;;;;;;7.75;6.03;;;5.50;88.10;;;;;;5073754;28;20541;-76
2021/03/19 00:40:40;;;;;;;11.75;7.00;;;5.50;88.10;;;;;;5091952;28;20024;-76
2021/03/19 00:43:07;;;;;;;10.18;6.70;;;5.50;88.10;;;;;;5094703;28;20035;-76
2021/03/19 00:45:33;;;;;;;10.60;6.38;;;5.50;88.10;;;;;;5095632;28;20048;-76
2021/03/19 00:47:58;;;;;;;10.90;6.88;;;5.50;88.20;;;;;;5095938;28;20028;-76
2021/03/19 00:50:36;;;;;;;7.22;6.22;;;5.50;88.10;;;;;;5077710;28;20066;-76
2021/03/19 00:53:02;;;;;;;10.50;6.28;;;5.50;88.10;;;;;;5070064;28;20400;-76
2021/03/19 00:55:28;;;;;;;9.63;5.75;;;5.40;88.40;;;;;;5095899;28;20558;-77
2021/03/19 00:57:54;;;;;;;11.82;6.15;;;5.40;87.80;;;;;;5094999;28;20086;-76
2021/03/19 01:00:21;;;;;;;9.63;5.65;;;5.40;87.80;;;;;;5095715;28;20032;-76
2021/03/19 01:02:47;;;;;;;7.63;5.63;;;5.40;87.60;;;;;;5060740;28;20036;-76
2021/03/19 01:05:24;;;;;;;9.98;5.97;;;5.30;87.40;;;;;;5095650;28;20493;-76
2021/03/19 01:07:50;;;;;;;10.38;5.80;;;5.30;87.00;;;;;;5095238;28;20044;-76
2021/03/19 01:10:23;;;;;;;9.48;5.82;;;5.20;87.20;;;;;;5095380;28;20028;-76
2021/03/19 01:12:48;;;;;;;9.10;5.68;;;5.20;87.50;;;;;;5076790;28;20035;-76
2021/03/19 01:15:14;;;;;;;11.30;6.00;;;5.10;87.40;;;;;;5040347;28;20401;-76
2021/03/19 01:17:40;;;;;;;7.75;5.43;;;5.10;87.50;;;;;;5075207;28;20115;-76
2021/03/19 01:20:09;;;;;;;10.02;6.00;;;5.10;87.50;;;;;;5060645;28;20051;-76
2021/03/19 01:22:35;;;;;;;;;;;5.00;87.60;;;;;;5092261;28;20114;-76
2021/03/19 01:25:01;;;;;;;10.93;6.50;;;5.00;87.40;;;;;;5094859;28;19955;-76
2021/03/19 01:27:26;;;;;;;9.35;5.55;;;4.90;87.50;;;;;;5095001;28;20058;-76
2021/03/19 01:29:52;;;;;;;9.25;6.15;;;4.90;87.60;;;;;;5076660;28;20036;-76
2021/03/19 01:32:18;;;;;;;8.75;5.70;;;4.80;87.70;;;;;;5056329;28;20033;-76
2021/03/19 01:34:43;;;;;;;8.15;5.43;;;4.70;87.90;;;;;;5081246;28;20032;-76
2021/03/19 01:37:09;;;;;;;13.25;6.30;;;4.70;88.00;;;;;;5076705;28;20032;-76
2021/03/19 01:39:35;;;;;;;7.93;5.60;;;4.70;88.10;;;;;;5094666;28;20024;-76
2021/03/19 01:42:03;;;;;;;8.98;5.50;;;4.60;88.10;;;;;;5094544;28;20036;-76
2021/03/19 01:45:13;;;;;;;7.80;5.68;;;4.70;88.20;;;;;;5094543;28;20158;-76
2021/03/19 01:48:16;;;;;;;11.50;5.88;;;4.60;88.20;;;;;;5076208;28;20028;-76
2021/03/19 01:51:19;;;;;;;7.32;5.70;;;4.50;88.20;;;;;;5085669;28;20128;-76
2021/03/19 01:54:22;;;;;;;10.10;5.20;;;4.50;88.30;;;;;;5081183;28;20024;-76
2021/03/19 01:57:25;;;;;;;9.02;5.80;;;4.40;88.30;;;;;;5094395;28;20038;-76
2021/03/19 02:00:28;;;;;;;9.68;5.38;;;4.40;88.10;;;;;;5075842;28;20034;-76
2021/03/19 02:03:31;;;;;;;10.50;6.25;;;4.30;88.10;;;;;;5093876;28;20031;-76
2021/03/19 02:06:33;;;;;;;9.05;5.30;;;4.30;88.10;;;;;;5093607;28;20405;-76
2021/03/19 02:09:36;;;;;;;7.63;4.95;;;4.20;88.20;;;;;;5094209;28;20028;-76
2021/03/19 02:12:39;;;;;;;8.00;4.68;;;4.20;88.20;;;;;;5093885;28;20384;-76
2021/03/19 02:15:42;;;;;;;7.25;4.88;;;4.10;88.10;;;;;;5093565;28;20067;-76
2021/03/19 02:18:46;;;;;;;6.25;4.30;;;4.00;88.10;;;;;;5075859;28;20035;-76
2021/03/19 02:21:49;;;;;;;7.70;4.50;;;4.00;88.30;;;;;;5075320;28;20066;-76
2021/03/19 02:24:52;;;;;;;8.23;4.55;;;3.90;88.10;;;;;;5093638;28;20020;-76
2021/03/19 02:27:55;;;;;;;8.75;4.53;;;3.90;88.00;;;;;;5093583;28;20385;-76
2021/03/19 02:30:58;;;;;;;6.93;4.45;;;3.80;87.80;;;;;;5075356;28;20051;-76
2021/03/19 02:33:24;;;;;;;7.32;4.28;;;3.80;87.70;;;;;;5075685;28;20031;-76
2021/03/19 02:35:56;;;;;;;6.82;4.57;;;3.80;87.60;;;;;;5093378;28;20052;-76
2021/03/19 02:38:23;;;;;;;7.15;4.47;;;3.70;87.70;;;;;;5093718;28;20024;-76
2021/03/19 02:40:49;;;;;;;10.60;4.68;;;3.70;87.70;;;;;;5093517;28;20024;-76
2021/03/19 02:43:19;;;;;;;7.80;4.82;;;3.70;87.70;;;;;;5093486;28;20032;-76
2021/03/19 02:45:46;;;;;;;8.40;4.97;;;3.60;87.70;;;;;;5093380;28;20385;-76
2021/03/19 02:48:13;;;;;;;8.23;4.90;;;3.60;87.90;;;;;;5093527;28;20073;-76
2021/03/19 02:50:40;;;;;;;5.85;4.60;;;3.60;88.00;;;;;;5093215;28;20028;-76
2021/03/19 02:53:15;;;;;;;11.52;5.55;;;3.60;88.10;;;;;;5092823;28;20036;-76
2021/03/19 02:55:41;;;;;;;7.05;4.75;;;3.60;88.20;;;;;;5092459;28;20094;-76
2021/03/19 02:58:07;;;;;;;8.25;5.18;;;3.60;88.10;;;;;;5054846;28;20033;-76
2021/03/19 03:00:32;;;;;;;11.38;5.75;;;3.50;88.20;;;;;;5064275;28;20099;-76
2021/03/19 03:02:58;;;;;;;10.15;5.72;;;3.50;88.30;;;;;;5093049;28;20035;-76
2021/03/19 03:05:23;;;;;;;10.50;5.60;;;3.50;88.30;;;;;;5092554;28;20024;-76
2021/03/19 03:07:49;;;;;;;11.40;6.15;;;3.50;88.40;;;;;;5092864;28;21103;-76
2021/03/19 03:10:18;;;;;;;7.32;5.38;;;3.50;88.50;;;;;;5074114;28;20482;-76
2021/03/19 03:12:44;;;;;;;7.30;5.05;;;3.50;88.50;;;;;;5093067;28;20028;-76
2021/03/19 03:15:13;;;;;;;9.98;5.85;;;3.50;88.50;;;;;;5092467;28;20085;-76
2021/03/19 03:17:39;;;;;;;8.43;5.88;;;3.50;88.70;;;;;;5074933;28;20028;-76
2021/03/19 03:20:11;;;;;;;11.25;5.75;;;3.40;88.70;;;;;;5092580;28;20055;-76
2021/03/19 03:22:37;;;;;;;9.60;6.00;;;3.40;88.80;;;;;;5092994;28;20530;-76
2021/03/19 03:25:03;;;;;;;11.93;7.35;;;3.40;88.80;;;;;;5092619;28;20040;-76
2021/03/19 03:27:29;;;;;;;10.80;6.55;;;3.40;88.90;;;;;;5074880;28;20110;-76
2021/03/19 03:29:55;;;;;;;10.73;6.53;;;3.40;89.00;;;;;;5074459;28;20116;-76
2021/03/19 03:32:20;;;;;;;11.50;6.68;;;3.40;89.80;;;;;;5092969;28;20374;-76
2021/03/19 03:34:46;;;;;;;12.52;6.85;;;3.30;89.20;;;;;;5074627;28;20040;-76
2021/03/19 03:37:11;;;;;;;11.25;6.65;;;3.30;89.30;;;;;;5074811;28;20031;-76
2021/03/19 03:39:37;;;;;;;14.27;7.05;;;3.30;89.50;;;;;;5092473;28;20369;-76
2021/03/19 03:42:04;;;;;;;11.43;7.82;;;3.30;89.50;;;;;;5092834;28;20388;-76
2021/03/19 03:44:32;;;;;;;10.27;6.88;;;3.20;89.50;;;;;;5074500;28;20028;-76
2021/03/19 03:46:58;;;;;;;10.63;7.15;;;3.20;89.60;;;;;;5074584;28;20028;-76
2021/03/19 03:49:25;;;;;;;10.68;6.70;;;3.20;89.60;;;;;;5092284;28;20498;-76
2021/03/19 03:51:51;;;;;;;10.65;7.20;;;3.20;89.70;;;;;;5074765;28;20495;-76
2021/03/19 03:54:17;;;;;;;14.52;7.22;;;3.20;89.80;;;;;;5092643;28;20040;-76
2021/03/19 03:56:43;;;;;;;13.93;8.05;;;3.20;89.70;;;;;;5079585;28;20021;-76
2021/03/19 03:59:09;;;;;;;12.43;8.52;;;3.10;89.70;;;;;;5074022;28;20389;-76
2021/03/19 04:01:39;;;;;;;10.38;7.55;;;3.00;89.70;;;;;;5092712;28;20025;-76
2021/03/19 04:04:06;;;;;;;11.93;7.38;;;3.00;89.90;;;;;;5092340;28;20032;-76
2021/03/19 04:06:32;;;;;;;15.32;9.18;;;3.00;90.00;;;;;;5092277;28;20084;-76
2021/03/19 04:08:57;;;;;;;12.85;7.75;;;2.90;90.00;;;;;;5074334;28;20040;-76
2021/03/19 04:11:23;;;;;;;12.27;8.07;;;2.90;90.00;;;;;;5092694;28;20028;-76
2021/03/19 04:13:50;;;;;;;13.20;8.25;;;2.90;90.00;;;;;;5091985;28;20028;-76
2021/03/19 04:16:17;;;;;;;14.35;9.23;;;2.80;90.10;;;;;;5072435;28;20032;-76
2021/03/19 04:18:43;;;;;;;14.95;8.82;;;2.80;90.10;;;;;;5063654;28;20385;-76
2021/03/19 04:21:10;;;;;;;13.27;8.23;;;2.80;90.10;;;;;;5061266;28;20039;-76
2021/03/19 04:23:42;;;;;;;12.88;8.85;;;2.70;90.20;;;;;;5078258;28;20389;-76
2021/03/19 04:26:24;;;;;;;14.30;7.63;;;2.70;90.20;;;;;;5078160;28;20027;-76
2021/03/19 04:28:50;;;;;;;17.63;9.55;;;2.70;90.20;;;;;;5095912;28;20028;-76
2021/03/19 04:31:16;;;;;;;11.15;8.95;;;2.70;90.20;;;;;;5061246;28;20404;-77
2021/03/19 04:33:42;;;;;;;15.38;9.35;;;2.70;90.20;;;;;;5077878;28;20035;-76
2021/03/19 04:36:30;;;;;;;13.23;8.88;;;2.60;90.20;;;;;;5096117;28;20031;-76
2021/03/19 04:39:01;;;;;;;10.17;7.43;;;2.60;90.20;;;;;;5090110;28;20024;-76
2021/03/19 04:41:28;;;;;;;12.00;8.02;;;2.50;90.30;;;;;;5075932;28;20013;-76
2021/03/19 04:43:54;;;;;;;13.88;8.60;;;2.50;90.30;;;;;;5077170;28;20028;-76
2021/03/19 04:46:19;;;;;;;14.32;9.27;;;2.50;90.30;;;;;;5095717;28;20051;-76
2021/03/19 04:48:45;;;;;;;16.30;9.32;;;2.50;90.30;;;;;;5095527;28;20085;-76
2021/03/19 04:51:10;;;;;;;15.73;8.77;;;2.50;90.30;;;;;;5095516;28;20020;-76
2021/03/19 04:53:36;;;;;;;12.00;8.95;;;2.50;90.30;;;;;;5094701;28;20765;-76
2021/03/19 04:56:02;;;;;;;16.05;9.10;;;2.40;90.30;;;;;;5077212;28;20032;-76
2021/03/19 04:58:27;;;;;;;13.98;8.57;;;2.50;90.30;;;;;;5095308;28;20111;-76
2021/03/19 05:00:53;;;;;;;15.68;9.60;;;2.40;90.30;;;;;;5095350;28;20032;-76
2021/03/19 05:03:19;;;;;;;18.63;9.00;;;2.40;90.60;;;;;;5094967;28;20396;-76
2021/03/19 05:05:44;;;;;;;11.68;8.23;;;2.40;90.30;;;;;;5060053;28;20036;-76
2021/03/19 05:08:10;;;;;;;13.95;9.13;;;2.50;90.30;;;;;;5076859;28;20040;-76
2021/03/19 05:10:37;;;;;;;14.73;9.00;;;2.40;90.20;;;;;;5095227;28;20036;-76
2021/03/19 05:13:04;;;;;;;11.38;8.73;;;2.40;90.30;;;;;;5077413;28;20036;-76
2021/03/19 05:15:31;;;;;;;13.48;9.38;;;2.40;90.30;;;;;;5074508;28;20032;-76
2021/03/19 05:17:57;;;;;;;15.80;10.23;;;2.40;90.50;;;;;;5095264;28;20019;-76
2021/03/19 05:20:23;;;;;;;13.60;8.60;;;2.40;90.20;;;;;;5077282;28;20516;-76
2021/03/19 05:22:49;;;;;;;16.23;8.75;;;2.40;90.20;;;;;;5095049;28;20036;-76
2021/03/19 05:25:20;;;;;;;17.60;9.98;;;2.40;90.20;;;;;;5095002;28;20027;-76
2021/03/19 05:27:46;;;;;;;15.70;9.50;;;2.40;90.20;;;;;;5094821;28;20028;-76
2021/03/19 05:30:14;;;;;;;14.23;9.05;;;2.40;90.20;;;;;;5076889;28;20024;-76
2021/03/19 05:32:40;;;;;;;15.90;9.60;;;2.40;90.20;;;;;;5076035;28;20392;-76
2021/03/19 05:35:07;;;;;;;14.63;9.82;;;2.40;90.30;;;;;;5056775;28;20036;-76
2021/03/19 05:37:33;;;;;;;13.88;9.43;;;2.30;90.20;;;;;;5076636;28;20024;-76
2021/03/19 05:39:59;;;;;;;15.93;10.00;;;2.30;90.30;;;;;;5060099;28;20511;-76
2021/03/19 05:42:29;;;;;;;17.73;9.95;;;2.30;90.30;;;;;;5094565;28;20028;-76
2021/03/19 05:45:09;;;;;;;16.17;10.23;;;2.30;90.20;;;;;;5094331;28;20028;-76
2021/03/19 05:47:35;;;;;;;18.52;9.95;;;2.30;90.20;;;;;;5094622;28;20051;-75
2021/03/19 05:50:02;;;;;;;17.50;10.48;;;2.30;90.20;;;;;;5075847;28;20086;-76
2021/03/19 05:52:34;;;;;;;15.82;10.40;;;2.30;90.10;;;;;;5094284;28;20021;-76
2021/03/19 05:55:12;;;;;;;15.13;10.52;;;2.30;90.10;;;;;;5076194;28;20025;-76
2021/03/19 05:57:37;;;;;;;13.15;9.75;;;2.20;90.10;;;;;;5091659;28;20017;-76
2021/03/19 06:00:07;;;;;;;15.32;9.60;;;2.20;90.10;;;;;;5076534;28;20024;-76
2021/03/19 06:02:37;;;;;;;14.35;10.35;;;2.20;90.10;;;;;;5076205;28;20016;-76
2021/03/19 06:05:16;;;;;;;15.80;10.75;;;2.20;90.10;;;;;;5075782;28;20077;-76
2021/03/19 06:07:45;;;;;;;;;;;2.20;90.10;;;;;;5094408;28;20040;-76
2021/03/19 06:10:31;;;;;;;18.77;10.03;;;2.20;90.10;;;;;;5094167;28;19915;-76
2021/03/19 06:13:20;;;;;;;16.63;9.98;;;2.20;90.10;;;;;;5094253;28;20281;-76
2021/03/19 06:15:51;;;;;;;14.88;9.23;;;2.20;90.10;;;;;;5075483;28;20540;-76
2021/03/19 06:18:45;;;;;;;18.30;9.77;;;2.20;90.00;;;;;;5093778;28;20032;-75
2021/03/19 06:21:11;;;;;;;19.95;10.25;;;2.20;90.00;;;;;;5097804;28;20054;-75
2021/03/19 06:23:39;;;;;;;16.17;10.27;;;2.20;89.90;;;;;;5094071;28;20061;-75
2021/03/19 06:26:07;;;;;;;16.77;11.00;;;2.30;90.00;;;;;;5093636;28;20056;-76
2021/03/19 06:28:37;;;;;;;18.63;10.07;;;2.30;89.90;;;;;;5094085;28;20431;-75
2021/03/19 06:31:28;;;;;;;18.85;10.00;;;2.30;89.60;;;;;;5094061;28;20112;-75
2021/03/19 06:34:06;;;;;;;15.23;9.18;;;2.30;89.60;;;;;;5093460;28;20461;-76
2021/03/19 06:36:48;;;;;;;16.15;9.43;;;2.30;89.50;;;;;;5093648;28;20020;-76
2021/03/19 06:39:39;;;;;;;14.55;9.32;;;2.30;89.30;;;;;;5093599;28;20093;-76
2021/03/19 06:42:30;;;;;;;20.40;10.25;;;2.30;89.10;;;;;;5091849;28;20032;-76
2021/03/19 06:45:14;;;;;;;20.05;9.30;;;2.40;89.10;;;;;;5093878;28;20103;-76
2021/03/19 06:47:49;;;;;;;17.90;9.43;;;2.40;89.00;;;;;;5075625;28;20413;-76
2021/03/19 06:50:24;;;;;;;18.17;9.38;;;2.50;88.70;;;;;;5093973;28;20099;-76
2021/03/19 06:52:51;;;;;;;14.35;9.45;;;2.50;88.60;;;;;;5093994;28;20020;-76
2021/03/19 06:55:34;;;;;;;14.32;9.45;;;2.60;88.60;;;;;;5093355;28;20036;-76
2021/03/19 06:58:00;;;;;;;17.20;9.70;;;2.70;88.30;;;;;;5093618;28;20473;-76
2021/03/19 07:00:55;;;;;;;16.52;10.25;;;2.70;87.90;;;;;;5093036;28;20116;-76
2021/03/19 07:03:46;;;;;;;15.80;9.77;;;2.80;87.50;;;;;;5072103;28;20119;-76
2021/03/19 07:06:42;;;;;;;14.75;8.93;;;2.80;87.20;;;;;;5093376;28;20140;-76
2021/03/19 07:09:32;;;;;;;16.73;9.48;;;2.90;86.60;;;;;;5055457;28;20032;-76
2021/03/19 07:12:27;;;;;;;14.93;8.73;;;2.90;86.70;;;;;;5092471;28;20400;-76
2021/03/19 07:14:56;;;;;;;13.70;8.63;;;3.00;86.00;;;;;;5021149;28;20395;-76
2021/03/19 07:17:49;;;;;;;12.88;6.43;;;3.00;85.90;;;;;;5093421;28;20103;-76
2021/03/19 07:20:38;;;;;;;14.10;8.93;;;3.10;85.50;;;;;;5093536;28;20662;-75
2021/03/19 07:23:13;;;;;;;13.75;8.57;;;3.10;85.40;;;;;;5093209;28;20024;-76
2021/03/19 07:26:07;;;;;;;13.95;8.15;;;3.20;84.80;;;;;;5093157;28;20035;-76
2021/03/19 07:29:00;;;;;;;14.70;8.00;;;3.20;84.50;;;;;;5071740;28;20040;-76
2021/03/19 07:31:32;;;;;;;10.40;7.60;;;3.30;84.80;;;;;;5074963;28;20024;-76
2021/03/19 07:34:26;;;;;;;13.68;8.43;;;3.40;83.80;;;;;;5074268;28;20052;-76
2021/03/19 07:36:55;;;;;;;13.32;7.50;;;3.50;83.80;;;;;;5092800;28;20016;-76
2021/03/19 07:39:32;;;;;;;13.32;7.15;;;3.60;83.80;;;;;;5093199;28;20024;-76
2021/03/19 07:42:10;;;;;;;11.15;6.88;;;3.80;83.70;;;;;;5093110;28;20469;-76
2021/03/19 07:44:41;;;;;;;10.35;6.47;;;3.90;83.10;;;;;;5092588;28;20492;-76
2021/03/19 07:47:40;;;;;;;11.48;6.47;;;4.00;82.00;;;;;;5075006;28;20024;-76
2021/03/19 07:50:30;;;;;;;10.73;6.43;;;4.10;82.30;;;;;;5054849;28;20297;-76
2021/03/19 07:52:55;;;;;;;11.02;6.32;;;4.20;81.90;;;;;;5081706;28;20051;-76
2021/03/19 07:55:32;;;;;;;8.68;5.85;;;4.30;81.70;;;;;;5097088;28;20489;-76
2021/03/19 07:58:24;;;;;;;10.65;6.38;;;4.40;81.00;;;;;;5096853;28;20035;-76
2021/03/19 08:01:09;;;;;;;10.35;6.35;;;4.50;80.80;;;;;;5096998;28;20020;-76
2021/03/19 08:03:37;;;;;;;8.75;5.55;;;4.60;80.40;;;;;;5078300;28;20063;-76
2021/03/19 08:06:13;;;;;;;8.45;5.55;;;4.60;78.60;;;;;;5062228;28;20059;-76
2021/03/19 08:08:39;;;;;;;12.80;5.97;;;4.70;79.00;;;;;;5078703;28;20394;-77
2021/03/19 08:11:37;;;;;;;9.75;5.57;;;4.70;78.90;;;;;;5096568;28;20039;-76
2021/03/19 08:14:31;;;;;;;10.60;5.60;;;4.80;79.20;;;;;;5070050;28;20032;-76
2021/03/19 08:17:19;;;;;;;11.23;5.35;;;5.00;78.40;;;;;;5084658;28;20044;-76
2021/03/19 08:19:50;;;;;;;11.05;6.18;;;5.10;78.20;;;;;;5097036;28;20156;-76
2021/03/19 08:22:40;;;;;;;10.23;5.45;;;5.20;77.60;;;;;;5096227;28;20035;-76
2021/03/19 08:25:24;;;;;;;10.48;4.88;;;5.30;77.60;;;;;;5095906;28;20500;-76
2021/03/19 08:27:57;;;;;;;10.93;5.18;;;5.30;76.70;;;;;;5077270;28;20077;-76
2021/03/19 08:30:37;;;;;;;11.32;5.10;;;5.40;75.90;;;;;;5077370;28;20050;-76
2021/03/19 08:33:24;;;;;;;6.45;4.57;;;5.50;75.20;;;;;;5091964;28;20101;-76
2021/03/19 08:35:54;;;;;;;8.20;5.03;;;5.50;74.40;;;;;;5094283;28;20439;-77
2021/03/19 08:38:38;;;;;;;6.85;4.53;;;5.50;74.90;;;;;;5085951;28;20385;-77
2021/03/19 08:41:28;;;;;;;7.75;4.63;;;5.60;74.80;;;;;;5095651;28;20115;-76
2021/03/19 08:43:58;;;;;;;5.60;4.40;;;5.60;74.20;;;;;;5096067;28;20027;-76
2021/03/19 08:46:24;;;;;;;6.05;4.15;;;5.70;73.70;;;;;;5096271;28;20071;-76
2021/03/19 08:49:03;;;;;;;9.15;4.10;;;5.80;74.10;;;;;;5096075;28;20449;-77
2021/03/19 08:51:29;;;;;;;5.75;3.85;;;5.90;74.10;;;;;;5096135;28;20016;-77
2021/03/19 08:54:16;;;;;;;6.10;4.20;;;6.00;73.30;;;;;;5095816;28;20031;-76
2021/03/19 08:56:50;;;;;;;7.93;3.85;;;6.00;72.40;;;;;;5095870;28;20028;-77
2021/03/19 08:59:33;;;;;;;6.82;3.97;;;6.20;73.50;;;;;;5095496;28;20123;-76
2021/03/19 09:02:17;;;;;;;8.48;4.00;;;6.50;71.40;;;;;;5095476;28;20028;-76
2021/03/19 09:04:58;;;;;;;4.28;3.13;;;6.70;70.90;;;;;;5077500;28;20028;-76
2021/03/19 09:07:36;;;;;;;8.32;3.72;;;6.80;68.70;;;;;;5066139;28;20532;-80
2021/03/19 09:10:28;;;;;;;4.43;3.15;;;6.80;68.30;;;;;;5058736;28;20489;-75
2021/03/19 09:12:57;;;;;;;7.35;3.47;;;6.80;69.30;;;;;;5038333;28;20041;-76
2021/03/19 09:15:26;;;;;;;7.18;3.47;;;7.00;68.80;;;;;;5067303;28;20017;-76
2021/03/19 09:17:57;;;;;;;7.72;3.13;;;7.10;67.30;;;;;;5057173;28;20031;-76
2021/03/19 09:20:25;;;;;;;7.13;3.25;;;7.10;66.80;;;;;;5073039;28;20028;-76
2021/03/19 09:23:08;;;;;;;4.88;3.20;;;7.30;67.80;;;;;;5095388;28;20073;-76
2021/03/19 09:25:53;;;;;;;7.93;2.90;;;7.40;66.60;;;;;;5058599;28;20051;-76
2021/03/19 09:28:39;;;;;;;6.78;3.13;;;7.60;66.20;;;;;;5075004;28;20381;-76
2021/03/19 09:31:07;;;;;;;5.90;3.40;;;7.70;66.10;;;;;;5056726;28;20154;-76
2021/03/19 09:33:45;;;;;;;4.80;2.95;;;7.90;65.20;;;;;;5074479;28;20466;-76
2021/03/19 09:37:05;;;;;;;6.18;3.53;;;7.90;63.10;;;;;;5054797;28;20078;-76
2021/03/19 09:39:47;;;;;;;7.53;2.90;;;7.90;64.30;;;;;;4993361;28;20105;-76
2021/03/19 09:42:19;;;;;;;8.63;3.03;;;8.00;64.20;;;;;;5054755;28;20037;-76
2021/03/19 09:44:57;;;;;;;7.22;3.17;;;8.10;61.60;;;;;;5074118;28;20040;-77
2021/03/19 09:47:45;;;;;;;5.18;3.20;;;8.00;62.20;;;;;;5056037;28;20055;-75
2021/03/19 09:50:31;;;;;;;4.15;2.72;;;8.20;61.40;;;;;;5055561;28;20425;-75
2021/03/19 09:53:24;;;;;;;4.50;2.72;;;8.30;61.70;;;;;;5074320;28;20032;-76
2021/03/19 09:55:57;;;;;;;4.40;2.78;;;8.40;60.60;;;;;;5069866;28;20083;-76
2021/03/19 09:58:42;;;;;;;4.93;2.40;;;8.40;60.50;;;;;;5070010;28;20035;-77
2021/03/19 10:01:28;;;;;;;2.92;2.38;;;8.30;61.20;;;;;;5055793;28;20554;-76
2021/03/19 10:03:59;;;;;;;3.03;2.33;;;8.20;61.30;;;;;;5056226;28;20044;-76
2021/03/19 10:06:29;;;;;;;4.57;2.17;;;8.10;60.30;;;;;;5056950;28;20116;-76
2021/03/19 10:09:09;;;;;;;3.92;2.50;;;8.00;59.90;;;;;;5075536;28;20481;-76
2021/03/19 10:11:35;;;;;;;4.78;2.20;;;7.90;59.70;;;;;;5093965;28;20452;-76
2021/03/19 10:14:22;;;;;;;4.13;2.30;;;8.00;59.40;;;;;;5075553;28;20056;-76
2021/03/19 10:16:49;;;;;;;4.00;2.10;;;8.30;58.10;;;;;;5093947;28;20485;-75
2021/03/19 10:19:16;;;;;;;3.40;1.92;;;8.50;57.70;;;;;;5076219;28;20028;-77
2021/03/19 10:21:47;;;;;;;6.35;2.05;;;8.70;56.50;;;;;;5075529;28;20020;-77
2021/03/19 10:24:14;;;;;;;4.65;2.00;;;9.00;56.20;;;;;;5094219;28;20070;-77
2021/03/19 10:27:13;;;;;;;4.10;1.80;;;9.10;54.90;;;;;;5094276;28;20028;-76
2021/03/19 10:29:43;;;;;;;4.97;2.10;;;9.10;54.90;;;;;;5039200;28;20032;-77
2021/03/19 10:32:22;;;;;;;18.60;2.00;;;9.00;54.70;;;;;;5075725;28;20028;-76
2021/03/19 10:35:00;;;;;;;3.45;1.83;;;9.00;55.30;;;;;;5093718;28;20031;-77
2021/03/19 10:37:37;;;;;;;4.63;1.95;;;8.60;54.10;;;;;;5093673;28;20020;-77
2021/03/19 10:40:25;;;;;;;4.13;1.92;;;8.30;55.70;;;;;;5093601;28;20016;-77
2021/03/19 10:42:54;;;;;;;4.03;1.58;;;8.20;56.80;;;;;;5075283;28;20020;-76
2021/03/19 10:45:30;;;;;;;;;;;8.20;56.70;;;;;;5075491;28;20032;-76
2021/03/19 10:48:02;;;;;;;2.22;1.30;;;8.40;56.20;;;;;;5109517;28;20001;-79
2021/03/19 10:50:33;;;;;;;2.17;1.40;;;8.70;56.10;;;;;;5074893;28;20028;-77
2021/03/19 10:53:03;;;;;;;3.70;1.60;;;9.00;56.30;;;;;;5093713;28;20024;-79
2021/03/19 10:55:33;;;;;;;4.60;1.80;;;9.30;55.90;;;;;;5073368;28;20020;-78
2021/03/19 10:58:17;;;;;;;;;;;9.50;55.00;;;;;;5086165;28;20028;-77
2021/03/19 11:00:44;;;;;;;;;;;9.70;54.60;;;;;;5094199;28;19954;-78
2021/03/19 11:03:21;;;;;;;;;;;9.80;53.40;;;;;;5075474;28;19915;-77
2021/03/19 11:06:04;;;;;;;;;;;10.00;53.80;;;;;;5094128;28;19996;-77
2021/03/19 11:08:30;;;;;;;;;;;10.10;52.00;;;;;;5074887;28;19912;-77
2021/03/19 11:10:56;;;;;;;;;;;10.10;51.10;;;;;;5076382;28;19946;-77
2021/03/19 11:13:26;;;;;;;;;;;10.00;51.40;;;;;;5075372;28;20376;-78
2021/03/19 11:15:54;;;;;;;;;;;9.90;51.00;;;;;;5093621;28;20003;-77
2021/03/19 11:18:19;;;;;;;;;;;9.90;51.50;;;;;;5093898;28;19985;-77
2021/03/19 11:20:56;;;;;;;;;;;10.10;51.40;;;;;;5092556;28;20011;-78
2021/03/19 11:23:21;;;;;;;;;;;10.30;51.00;;;;;;5093602;28;19911;-76
2021/03/19 11:25:49;;;;;;;;;;;10.40;51.30;;;;;;5074874;28;19908;-77
2021/03/19 11:28:17;;;;;;;;;;;10.60;51.40;;;;;;5094034;28;20372;-79
2021/03/19 11:30:43;;;;;;;;;;;10.70;51.40;;;;;;5093615;28;19908;-80
2021/03/19 11:33:12;;;;;;;;;;;11.00;50.70;;;;;;5059073;28;19915;-77
2021/03/19 11:35:38;;;;;;;;;;;11.30;50.00;;;;;;5093030;28;19916;-79
2021/03/19 11:38:12;;;;;;;;;;;11.30;47.90;;;;;;5093848;28;20322;-78
2021/03/19 11:40:39;;;;;;;;;;;11.10;47.60;;;;;;5075453;28;19914;-80
2021/03/19 11:43:06;;;;;;;;;;;11.00;48.50;;;;;;5093836;28;19994;-78
2021/03/19 11:45:37;;;;;;;;;;;11.00;47.80;;;;;;5075179;28;19915;-79
2021/03/19 11:48:15;;;;;;;;;;;11.10;47.30;;;;;;5074838;28;20277;-78
2021/03/19 11:50:48;;;;;;;;;;;11.20;49.00;;;;;;5075495;28;19961;-77
2021/03/19 11:53:19;;;;;;;;;;;11.30;48.60;;;;;;5087620;28;19912;-83
2021/03/19 11:55:47;;;;;;;;;;;11.40;47.30;;;;;;5093113;28;20276;-83
2021/03/19 11:58:13;;;;;;;;;;;11.40;47.30;;;;;;5093830;28;19903;-85
2021/03/19 12:00:40;;;;;;;;;;;11.40;47.80;;;;;;5093582;28;19936;-80
2021/03/19 12:03:08;;;;;;;;;;;11.50;48.30;;;;;;5092562;28;20242;-76
2021/03/19 12:05:34;;;;;;;;;;;11.70;48.20;;;;;;5093275;28;20356;-78
2021/03/19 12:08:00;;;;;;;;;;;11.70;46.50;;;;;;5075408;28;19934;-77
2021/03/19 12:10:29;;;;;;;;;;;11.80;46.70;;;;;;5093319;28;20261;-79
2021/03/19 12:13:00;;;;;;;;;;;11.80;46.90;;;;;;5074952;28;19908;-78
2021/03/19 12:15:26;;;;;;;;;;;11.90;46.10;;;;;;5093372;28;20296;-78
2021/03/19 12:17:51;;;;;;;;;;;12.00;47.00;;;;;;5093204;28;19990;-78
2021/03/19 12:20:17;;;;;;;;;;;12.10;47.30;;;;;;5093188;28;19958;-78
2021/03/19 12:22:43;;;;;;;;;;;12.00;45.50;;;;;;5075634;28;19908;-77
2021/03/19 12:25:14;;;;;;;;;;;11.90;45.50;;;;;;5093332;28;19904;-77
2021/03/19 12:27:40;;;;;;;;;;;11.80;46.00;;;;;;5093159;28;19904;-82
2021/03/19 12:30:05;;;;;;;;;;;11.90;46.60;;;;;;5093110;28;19915;-80
2021/03/19 12:32:31;;;;;;;;;;;12.00;44.70;;;;;;5074974;28;19918;-81
2021/03/19 12:34:56;;;;;;;;;;;11.80;43.60;;;;;;5093069;28;19951;-83
2021/03/19 12:37:22;;;;;;;;;;;11.60;43.40;;;;;;5093051;28;20265;-79
2021/03/19 12:39:47;;;;;;;;;;;11.60;44.10;;;;;;5058394;28;19912;-79
2021/03/19 12:42:13;;;;;;;;;;;11.60;44.20;;;;;;5078594;28;19944;-79
2021/03/19 12:44:38;;;;;;;;;;;11.70;43.30;;;;;;5077803;28;19923;-81
2021/03/19 12:47:04;;;;;;;;;;;11.70;43.10;;;;;;5078583;28;19908;-80
2021/03/19 12:49:30;;;;;;;;;;;11.80;42.60;;;;;;5096356;28;19912;-80
2021/03/19 12:51:56;;;;;;;;;;;11.60;42.10;;;;;;5078686;28;20318;-79
2021/03/19 12:54:21;;;;;;;;;;;11.60;41.20;;;;;;5096192;28;19912;-79
2021/03/19 12:56:47;;;;;;;;;;;11.50;42.20;;;;;;5096663;28;20004;-79
2021/03/19 12:59:12;;;;;;;;;;;11.60;43.50;;;;;;5078833;28;20292;-82
2021/03/19 13:01:38;;;;;;;;;;;11.90;44.20;;;;;;5096310;28;20375;-81
2021/03/19 13:04:03;;;;;;;;;;;12.20;43.60;;;;;;5078536;28;19907;-82
2021/03/19 13:06:29;;;;;;;;;;;12.20;41.00;;;;;;5076547;28;19919;-81
2021/03/19 13:08:54;;;;;;;;;;;12.00;41.20;;;;;;5095780;28;19957;-83
2021/03/19 13:11:20;;;;;;;;;;;11.60;41.50;;;;;;5078390;28;19970;-82
2021/03/19 13:13:46;;;;;;;;;;;11.30;42.80;;;;;;5096449;28;19904;-81
2021/03/19 13:16:12;;;;;;;;;;;11.10;43.50;;;;;;5096280;28;19947;-81
2021/03/19 13:18:38;;;;;;;;;;;11.30;44.30;;;;;;5095987;28;19904;-79
2021/03/19 13:21:06;;;;;;;;;;;11.50;44.10;;;;;;5075931;28;20304;-79
2021/03/19 13:23:32;;;;;;;;;;;11.70;43.80;;;;;;5095755;28;19952;-79
2021/03/19 13:25:58;;;;;;;;;;;12.00;41.70;;;;;;5058260;28;20415;-79
2021/03/19 13:28:24;;;;;;;;;;;11.90;43.00;;;;;;5095955;28;19904;-78
2021/03/19 13:30:49;;;;;;;;;;;11.80;42.10;;;;;;5077949;28;19966;-79
2021/03/19 13:33:15;;;;;;;;;;;11.50;42.80;;;;;;5095204;28;19908;-78
2021/03/19 13:35:43;;;;;;;;;;;11.20;43.90;;;;;;5076373;28;20392;-78
2021/03/19 13:38:10;;;;;;;;;;;11.00;44.40;;;;;;5093870;28;19908;-79
2021/03/19 13:40:37;;;;;;;;;;;11.00;43.80;;;;;;5095682;28;20396;-78